Time;durP1;ratioP1;P1;durP2;ratioP2;P2;SDS_P1;SDS_P2;PMS_P1;PMS_P2;Temp;Humidity;BMP_temperature;BMP_pressure;BME280_temperature;BME280_humidity;BME280_pressure;Samples;Min_cycle;Max_cycle;Signal;HPM_P1;HPM_P2
2022/07/23 00:01:09;;;;;;;;;15.25;14.00;;;;;18.19;69.61;100113.84;5115816;28;8920;-62
2022/07/23 00:03:37;;;;;;;;;19.00;17.50;;;;;18.20;69.64;100106.59;5115791;28;8954;-62
2022/07/23 00:06:05;;;;;;;;;13.50;12.25;;;;;18.20;69.90;100099.34;5115200;28;8866;-61
2022/07/23 00:08:36;;;;;;;;;19.50;18.50;;;;;18.20;69.73;100096.66;5116178;28;8939;-63
2022/07/23 00:11:04;;;;;;;;;21.00;18.00;;;;;18.19;69.57;100099.50;5115640;28;8828;-61
2022/07/23 00:13:32;;;;;;;;;17.50;15.75;;;;;18.15;69.66;100101.69;5115735;28;8808;-61
2022/07/23 00:16:00;;;;;;;;;17.50;14.50;;;;;18.13;70.21;100101.03;5115517;28;9485;-61
2022/07/23 00:18:28;;;;;;;;;17.80;15.60;;;;;18.08;69.78;100097.97;5125242;27;8813;-61
2022/07/23 00:20:56;;;;;;;;;21.50;18.50;;;;;18.06;70.26;100105.38;5135571;27;8829;-61
2022/07/23 00:23:24;;;;;;;;;12.00;9.80;;;;;18.04;70.34;100115.50;5135974;27;9484;-62
2022/07/23 00:25:52;;;;;;;;;15.60;15.20;;;;;18.02;69.94;100127.44;5136583;27;8838;-62
2022/07/23 00:28:20;;;;;;;;;18.00;13.80;;;;;17.96;70.19;100136.19;5128358;28;8812;-66
2022/07/23 00:30:49;;;;;;;;;23.00;20.20;;;;;17.82;70.74;100124.19;5106520;28;8850;-62
2022/07/23 00:33:16;;;;;;;;;21.00;18.25;;;;;17.73;70.70;100119.78;5096860;28;8844;-62
2022/07/23 00:35:44;;;;;;;;;18.50;16.50;;;;;17.64;71.31;100107.31;5098356;28;8830;-62
2022/07/23 00:38:12;;;;;;;;;17.50;15.00;;;;;17.59;71.56;100098.84;5099323;28;8966;-62
2022/07/23 00:40:40;;;;;;;;;19.50;16.50;;;;;17.58;71.29;100094.47;5098720;28;8916;-62
2022/07/23 00:43:08;;;;;;;;;16.50;15.50;;;;;17.57;71.57;100095.50;5098921;28;8830;-61
2022/07/23 00:45:35;;;;;;;;;18.00;17.00;;;;;17.57;71.72;100092.81;5098727;28;8899;-63
2022/07/23 00:48:04;;;;;;;;;18.25;16.00;;;;;17.58;71.64;100088.25;5098615;28;8818;-62
2022/07/23 00:50:31;;;;;;;;;15.25;14.00;;;;;17.60;71.74;100092.47;5098672;28;8844;-62
2022/07/23 00:52:59;;;;;;;;;18.50;16.50;;;;;17.60;71.54;100097.84;5098755;28;8838;-62
2022/07/23 00:55:27;;;;;;;;;18.00;17.25;;;;;17.60;71.39;100079.00;5098438;28;8868;-62
2022/07/23 00:57:55;;;;;;;;;18.50;17.00;;;;;17.61;71.29;100083.38;5099875;28;8810;-61
2022/07/23 01:00:23;;;;;;;;;16.75;15.75;;;;;17.61;71.92;100086.06;5117575;28;8958;-61
2022/07/23 01:02:50;;;;;;;;;17.25;15.50;;;;;17.61;71.78;100083.38;5118954;28;8858;-61
2022/07/23 01:05:21;;;;;;;;;22.50;19.50;;;;;17.64;71.51;100074.13;5118627;28;8835;-62
2022/07/23 01:07:51;;;;;;;;;22.50;17.75;;;;;17.65;71.58;100068.59;5118642;28;8828;-62
2022/07/23 01:10:32;;;;;;;;;23.00;20.75;;;;;17.64;72.01;100072.28;5118963;28;8897;-61
2022/07/23 01:12:59;;;;;;;;;15.75;13.00;;;;;17.63;71.73;100069.75;5118828;28;8836;-62
2022/07/23 01:15:28;;;;;;;;;22.50;20.25;;;;;17.63;71.55;100062.50;5118613;28;8840;-62
2022/07/23 01:17:56;;;;;;;;;20.50;18.00;;;;;17.60;71.38;100057.44;5118690;28;9537;-62
2022/07/23 01:20:23;;;;;;;;;19.00;16.50;;;;;17.57;72.16;100055.09;5118060;28;8866;-62
2022/07/23 01:22:51;;;;;;;;;20.00;18.25;;;;;17.51;71.64;100050.34;5118134;28;8958;-61
2022/07/23 01:25:19;;;;;;;;;21.75;19.00;;;;;17.50;72.06;100047.81;5118875;28;8812;-62
2022/07/23 01:27:47;;;;;;;;;27.25;24.50;;;;;17.47;72.09;100054.38;5116516;28;8836;-62
2022/07/23 01:30:14;;;;;;;;;20.00;17.00;;;;;17.44;72.04;100060.09;5098363;28;8850;-62
2022/07/23 01:32:42;;;;;;;;;17.75;16.75;;;;;17.43;72.34;100069.19;5097891;28;8861;-61
2022/07/23 01:35:10;;;;;;;;;12.25;11.75;;;;;17.42;72.18;100063.94;5097733;28;8845;-61
2022/07/23 01:37:38;;;;;;;;;16.50;15.25;;;;;17.42;71.79;100072.88;5097659;28;8962;-62
2022/07/23 01:40:06;;;;;;;;;22.00;20.00;;;;;17.41;72.70;100067.66;5097462;28;8931;-61
2022/07/23 01:42:33;;;;;;;;;17.75;15.50;;;;;17.40;72.49;100066.78;5097732;28;8833;-61
2022/07/23 01:45:01;;;;;;;;;18.75;17.50;;;;;17.39;71.97;100070.50;5096372;28;8822;-61
2022/07/23 01:47:30;;;;;;;;;19.50;18.25;;;;;17.39;72.05;100065.09;5097765;28;8956;-64
2022/07/23 01:49:57;;;;;;;;;20.00;15.75;;;;;17.38;72.77;100055.34;5097359;28;8868;-62
2022/07/23 01:52:25;;;;;;;;;18.25;17.50;;;;;17.37;72.21;100045.59;5097832;28;8830;-65
2022/07/23 01:54:53;;;;;;;;;26.25;23.75;;;;;17.38;72.51;100043.75;5095292;28;8989;-61
2022/07/23 01:57:21;;;;;;;;;25.75;21.50;;;;;17.37;72.68;100048.28;5094977;28;8923;-62
2022/07/23 01:59:49;;;;;;;;;22.75;19.00;;;;;17.35;72.42;100044.88;5096560;28;8877;-62
2022/07/23 02:02:17;;;;;;;;;17.00;17.00;;;;;17.36;72.65;100043.00;5097112;28;8869;-62
2022/07/23 02:04:44;;;;;;;;;17.00;14.50;;;;;17.36;72.32;100029.56;5097247;28;9753;-61
2022/07/23 02:07:12;;;;;;;;;20.75;18.75;;;;;17.39;72.18;100029.28;5096029;28;8837;-61
2022/07/23 02:09:40;;;;;;;;;21.00;18.00;;;;;17.41;72.25;100033.50;5097152;28;8926;-61
2022/07/23 02:12:08;;;;;;;;;18.50;18.00;;;;;17.44;72.18;100035.00;5097315;28;8841;-62
2022/07/23 02:14:36;;;;;;;;;16.75;16.00;;;;;17.43;72.91;100034.16;5096604;28;9595;-61
2022/07/23 02:17:06;;;;;;;;;20.75;18.75;;;;;17.42;72.40;100029.78;5096905;28;8833;-61
2022/07/23 02:19:33;;;;;;;;;15.75;15.25;;;;;17.40;72.74;100029.09;5096978;28;8914;-62
2022/07/23 02:22:01;;;;;;;;;15.25;12.50;;;;;17.38;72.55;100027.59;5112159;28;8808;-61
2022/07/23 02:24:29;;;;;;;;;22.75;20.50;;;;;17.35;73.21;100033.25;5117221;28;8828;-61
2022/07/23 02:26:56;;;;;;;;;24.00;19.00;;;;;17.32;72.51;100025.50;5117241;28;8844;-62
2022/07/23 02:29:24;;;;;;;;;22.25;18.00;;;;;17.29;72.91;100031.22;5116488;28;8871;-61
2022/07/23 02:31:52;;;;;;;;;18.75;18.25;;;;;17.27;72.72;100035.91;5134902;27;8845;-60
2022/07/23 02:34:20;;;;;;;;;15.00;12.75;;;;;17.26;73.35;100028.84;5137669;27;8833;-61
2022/07/23 02:36:48;;;;;;;;;22.50;21.00;;;;;17.23;73.16;100030.00;5137597;27;8854;-61
2022/07/23 02:39:16;;;;;;;;;20.00;18.50;;;;;17.22;73.01;100028.31;5137505;27;8964;-62
2022/07/23 02:41:44;;;;;;;;;21.20;17.40;;;;;17.19;73.00;100030.50;5137913;27;8833;-61
2022/07/23 02:44:12;;;;;;;;;21.00;18.75;;;;;17.18;72.96;100027.00;5137675;27;8860;-61
2022/07/23 02:46:40;;;;;;;;;16.25;15.50;;;;;17.18;73.09;100036.88;5137629;27;8849;-63
2022/07/23 02:49:08;;;;;;;;;18.00;15.25;;;;;17.19;72.94;100035.88;5135882;27;8841;-63
2022/07/23 02:51:35;;;;;;;;;22.00;20.75;;;;;17.20;73.01;100038.44;5124215;27;8812;-62
2022/07/23 02:54:03;;;;;;;;;18.00;14.50;;;;;17.18;72.83;100037.75;5116652;28;8816;-61
2022/07/23 02:56:31;;;;;;;;;17.75;14.75;;;;;17.17;73.35;100044.09;5116449;28;8828;-64
2022/07/23 02:58:59;;;;;;;;;19.00;17.75;;;;;17.15;73.46;100045.31;5115980;28;8832;-61
2022/07/23 03:01:27;;;;;;;;;21.50;18.50;;;;;17.12;73.70;100033.00;5116542;28;8840;-63
2022/07/23 03:03:55;;;;;;;;;24.00;19.00;;;;;17.11;73.06;100036.72;5116434;28;8846;-61
2022/07/23 03:06:23;;;;;;;;;18.00;17.00;;;;;17.11;73.29;100030.47;5114541;28;8975;-61
2022/07/23 03:08:51;;;;;;;;;30.50;24.50;;;;;17.06;73.64;100022.88;5115385;28;8827;-62
2022/07/23 03:11:19;;;;;;;;;16.25;13.50;;;;;17.02;73.63;100034.94;5116480;28;8836;-63
2022/07/23 03:13:46;;;;;;;;;22.50;21.00;;;;;16.97;73.66;100034.63;5115872;28;8929;-62
2022/07/23 03:16:14;;;;;;;;;25.00;20.50;;;;;16.92;74.12;100034.25;5115914;28;8820;-61
2022/07/23 03:18:42;;;;;;;;;20.75;15.50;;;;;16.87;74.21;100039.25;5115901;28;8826;-61
2022/07/23 03:21:10;;;;;;;;;19.75;17.00;;;;;16.83;74.52;100039.72;5123507;27;9474;-64
2022/07/23 03:23:38;;;;;;;;;21.00;19.25;;;;;16.80;74.47;100045.44;5136576;27;9503;-61
2022/07/23 03:26:06;;;;;;;;;18.25;15.75;;;;;16.74;74.40;100038.00;5136410;27;8810;-65
2022/07/23 03:28:34;;;;;;;;;24.75;20.00;;;;;16.71;74.81;100039.16;5137282;27;8822;-62
2022/07/23 03:31:02;;;;;;;;;15.00;15.00;;;;;16.68;74.68;100034.09;5136549;27;8860;-62
2022/07/23 03:33:30;;;;;;;;;19.25;17.50;;;;;16.67;74.91;100039.63;5136520;27;8968;-62
2022/07/23 03:35:57;;;;;;;;;16.50;15.25;;;;;16.64;74.89;100043.47;5136539;27;8813;-61
2022/07/23 03:38:27;;;;;;;;;15.50;15.00;;;;;16.62;74.57;100045.47;5136625;27;8821;-61
2022/07/23 03:40:54;;;;;;;;;19.00;16.50;;;;;16.59;74.85;100039.56;5136916;27;8838;-62
2022/07/23 03:43:24;;;;;;;;;12.50;10.75;;;;;16.55;75.19;100036.34;5136712;27;8913;-63
2022/07/23 03:45:51;;;;;;;;;20.00;17.50;;;;;16.51;75.06;100036.84;5137007;27;8834;-62
2022/07/23 03:48:20;;;;;;;;;18.00;16.50;;;;;16.47;75.33;100030.09;5136495;27;8829;-62
2022/07/23 03:50:47;;;;;;;;;15.25;13.00;;;;;16.45;75.59;100037.44;5129237;28;8990;-63
2022/07/23 03:53:15;;;;;;;;;18.75;17.00;;;;;16.44;75.08;100042.00;5114312;28;8858;-62
2022/07/23 03:55:43;;;;;;;;;17.50;17.00;;;;;16.44;74.93;100031.25;5114014;28;8823;-62
2022/07/23 03:58:11;;;;;;;;;18.50;17.50;;;;;16.46;75.32;100028.38;5114030;28;9566;-61
2022/07/23 04:00:40;;;;;;;;;16.00;15.00;;;;;16.48;74.73;100032.59;5115856;28;8852;-61
2022/07/23 04:03:08;;;;;;;;;18.50;16.00;;;;;16.49;74.76;100039.66;5116006;28;8909;-62
2022/07/23 04:05:36;;;;;;;;;15.50;12.25;;;;;16.50;74.85;100041.34;5113837;28;8824;-62
2022/07/23 04:08:05;;;;;;;;;16.00;16.00;;;;;16.51;74.60;100043.06;5116545;28;8836;-62
2022/07/23 04:10:33;;;;;;;;;12.00;12.00;;;;;16.53;74.92;100040.19;5119663;28;8820;-62
2022/07/23 04:13:00;;;;;;;;;18.50;16.00;;;;;16.52;74.82;100039.38;5120010;28;8840;-62
2022/07/23 04:15:28;;;;;;;;;14.75;14.00;;;;;16.52;74.69;100039.38;5119722;28;8854;-61
2022/07/23 04:17:56;;;;;;;;;14.50;13.00;;;;;16.53;74.93;100049.13;5118910;28;8832;-62
2022/07/23 04:20:24;;;;;;;;;18.00;16.00;;;;;16.56;74.61;100047.97;5123233;27;8818;-61
2022/07/23 04:22:52;;;;;;;;;18.25;15.75;;;;;16.59;74.50;100051.19;5139582;27;9501;-61
2022/07/23 04:25:20;;;;;;;;;9.25;7.50;;;;;16.62;74.93;100056.25;5140323;27;8987;-61
2022/07/23 04:27:48;;;;;;;;;18.75;17.50;;;;;16.66;74.47;100049.56;5139310;27;8933;-62
2022/07/23 04:30:16;;;;;;;;;18.75;16.75;;;;;16.70;74.42;100048.22;5116706;27;8855;-62
2022/07/23 04:32:43;;;;;;;;;17.25;16.00;;;;;16.74;74.31;100046.06;5097848;28;8868;-65
2022/07/23 04:35:11;;;;;;;;;11.25;10.50;;;;;16.78;73.59;100044.75;5098016;28;8831;-62
2022/07/23 04:37:40;;;;;;;;;16.00;15.00;;;;;16.81;74.27;100050.66;5098147;28;8834;-62
2022/07/23 04:40:07;;;;;;;;;14.50;14.00;;;;;16.86;74.09;100048.31;5098265;28;8861;-62
2022/07/23 04:42:35;;;;;;;;;14.00;12.50;;;;;16.93;74.18;100049.38;5098997;28;8846;-62
2022/07/23 04:45:03;;;;;;;;;14.75;14.50;;;;;17.01;73.69;100062.03;5098171;28;8834;-63
2022/07/23 04:47:34;;;;;;;;;16.00;12.50;;;;;17.06;73.89;100059.69;5098546;28;8837;-62
2022/07/23 04:50:01;;;;;;;;;13.00;12.25;;;;;17.08;73.48;100063.91;5098051;28;8836;-63
2022/07/23 04:52:29;;;;;;;;;15.00;12.25;;;;;17.12;73.73;100059.91;5098052;28;8857;-62
2022/07/23 04:54:57;;;;;;;;;16.25;14.75;;;;;17.15;73.31;100064.16;5097647;28;8860;-62
2022/07/23 04:57:25;;;;;;;;;19.00;15.00;;;;;17.16;73.52;100058.56;5098750;28;8838;-61
2022/07/23 04:59:53;;;;;;;;;12.00;10.80;;;;;17.19;73.43;100065.50;5098350;28;8846;-62
2022/07/23 05:02:21;;;;;;;;;16.00;14.00;;;;;17.19;73.64;100071.72;5098993;28;8842;-61
2022/07/23 05:04:48;;;;;;;;;21.75;17.75;;;;;17.24;73.62;100074.75;5097942;28;8865;-63
2022/07/23 05:07:17;;;;;;;;;15.25;15.25;;;;;17.30;73.87;100078.69;5096681;28;8818;-62
2022/07/23 05:09:44;;;;;;;;;15.50;13.75;;;;;17.35;73.10;100082.56;5096736;28;8928;-62
2022/07/23 05:12:12;;;;;;;;;13.00;11.00;;;;;17.38;73.24;100086.84;5097385;28;8891;-62
2022/07/23 05:14:40;;;;;;;;;15.00;13.50;;;;;17.44;73.55;100088.84;5098409;28;9605;-62
2022/07/23 05:17:08;;;;;;;;;14.00;12.25;;;;;17.50;73.26;100091.75;5098142;28;8834;-61
2022/07/23 05:19:36;;;;;;;;;15.00;14.00;;;;;17.56;73.11;100091.13;5097659;28;8818;-62
2022/07/23 05:22:03;;;;;;;;;10.40;7.80;;;;;17.59;72.95;100098.84;5114584;28;9620;-61
2022/07/23 05:24:31;;;;;;;;;13.80;11.20;;;;;17.60;73.33;100105.09;5118322;28;8890;-62
2022/07/23 05:27:00;;;;;;;;;15.00;14.00;;;;;17.63;72.94;100092.13;5118521;28;8963;-61
2022/07/23 05:29:28;;;;;;;;;8.75;8.00;;;;;17.67;73.15;100093.50;5117886;28;8852;-62
2022/07/23 05:31:55;;;;;;;;;14.00;12.00;;;;;17.69;72.89;100096.88;5135820;27;8896;-61
2022/07/23 05:34:23;;;;;;;;;19.50;18.50;;;;;17.71;73.06;100094.88;5138111;27;8826;-63
2022/07/23 05:36:52;;;;;;;;;21.75;18.75;;;;;17.73;73.57;100100.06;5138107;27;8922;-61
2022/07/23 05:39:20;;;;;;;;;16.00;15.00;;;;;17.78;72.96;100109.34;5138257;27;9511;-62
2022/07/23 05:41:48;;;;;;;;;18.00;17.50;;;;;17.79;73.08;100102.97;5138434;27;8834;-61
2022/07/23 05:44:15;;;;;;;;;18.00;15.75;;;;;17.81;73.12;100114.44;5137945;27;8833;-61
2022/07/23 05:46:43;;;;;;;;;18.00;18.00;;;;;17.79;73.22;100104.81;5138444;27;8906;-62
2022/07/23 05:49:11;;;;;;;;;11.50;10.00;;;;;17.74;73.51;100117.91;5138221;27;8848;-61
2022/07/23 05:51:39;;;;;;;;;18.00;17.00;;;;;17.65;73.20;100122.47;5124202;27;8840;-62
2022/07/23 05:54:07;;;;;;;;;17.00;15.50;;;;;17.55;73.51;100115.50;5117067;28;8843;-62
2022/07/23 05:56:36;;;;;;;;;12.50;12.25;;;;;17.46;73.49;100113.78;5117269;28;8824;-61
2022/07/23 05:59:04;;;;;;;;;13.00;10.00;;;;;17.41;74.02;100119.66;5116609;28;8824;-67
2022/07/23 06:01:32;;;;;;;;;17.00;15.50;;;;;17.38;74.14;100125.34;5116462;28;8847;-62
2022/07/23 06:04:00;;;;;;;;;23.75;21.50;;;;;17.39;73.49;100121.66;5116043;28;9768;-61
2022/07/23 06:06:28;;;;;;;;;17.00;13.00;;;;;17.45;73.72;100126.41;5116774;28;8824;-62
2022/07/23 06:08:56;;;;;;;;;19.00;17.00;;;;;17.53;73.70;100126.44;5116336;28;8824;-61
2022/07/23 06:11:24;;;;;;;;;12.75;12.25;;;;;17.60;73.44;100130.16;5116392;28;8816;-61
2022/07/23 06:13:52;;;;;;;;;18.50;16.75;;;;;17.61;73.67;100131.03;5115935;28;8823;-61
2022/07/23 06:16:20;;;;;;;;;16.00;15.00;;;;;17.61;73.78;100137.25;5118516;27;8846;-63
2022/07/23 06:18:48;;;;;;;;;15.40;12.00;;;;;17.65;73.47;100130.53;5136658;27;8828;-62
2022/07/23 06:21:16;;;;;;;;;18.60;12.80;;;;;17.69;74.00;100137.28;5136977;27;8906;-63
2022/07/23 06:24:03;;;;;;;;;16.40;14.20;;;;;17.76;73.02;100132.91;5136474;27;8971;-63
2022/07/23 06:26:32;;;;;;;;;15.20;13.00;;;;;17.81;73.48;100135.97;5118360;27;8820;-62
2022/07/23 06:28:59;;;;;;;;;21.60;19.80;;;;;17.83;73.17;100142.03;5115978;28;8877;-62
2022/07/23 06:31:28;;;;;;;;;18.60;18.00;;;;;17.81;72.86;100138.69;5101305;28;8847;-64
2022/07/23 06:33:56;;;;;;;;;21.60;17.20;;;;;17.77;73.29;100134.59;5095556;28;8826;-62
2022/07/23 06:36:23;;;;;;;;;15.00;15.00;;;;;17.76;72.99;100137.50;5095101;28;8857;-62
2022/07/23 06:38:52;;;;;;;;;16.80;15.60;;;;;17.72;73.42;100139.66;5096138;28;8834;-61
2022/07/23 06:41:22;;;;;;;;;16.40;14.80;;;;;17.72;73.38;100142.34;5096577;28;8842;-62
2022/07/23 06:43:50;;;;;;;;;14.25;13.25;;;;;17.75;73.20;100149.28;5096479;28;8830;-61
2022/07/23 06:46:18;;;;;;;;;14.50;12.75;;;;;17.83;73.55;100152.81;5097397;28;8872;-62
2022/07/23 06:48:46;;;;;;;;;21.25;19.00;;;;;17.90;73.25;100153.84;5095532;28;8802;-63
2022/07/23 06:51:14;;;;;;;;;17.00;15.50;;;;;17.94;73.17;100149.84;5096048;28;8957;-63
2022/07/23 06:53:43;;;;;;;;;16.20;14.80;;;;;17.97;73.06;100160.28;5096603;28;8846;-62
2022/07/23 06:56:11;;;;;;;;;15.20;13.20;;;;;18.01;72.66;100160.81;5096197;28;8869;-61
2022/07/23 06:58:39;;;;;;;;;18.40;16.80;;;;;18.00;72.67;100154.56;5098733;28;8871;-63
2022/07/23 07:01:07;;;;;;;;;20.60;18.00;;;;;18.05;72.92;100160.31;5114143;28;8913;-62
2022/07/23 07:03:35;;;;;;;;;13.40;11.00;;;;;18.13;72.72;100163.03;5116593;28;8819;-62
2022/07/23 07:06:03;;;;;;;;;21.00;18.20;;;;;18.20;72.71;100165.91;5116110;28;8836;-62
2022/07/23 07:08:31;;;;;;;;;16.00;13.20;;;;;18.26;72.37;100162.53;5116333;28;8858;-62
2022/07/23 07:10:59;;;;;;;;;17.20;14.60;;;;;18.33;72.72;100164.47;5116667;28;8896;-62
2022/07/23 07:13:27;;;;;;;;;10.50;9.25;;;;;18.41;72.37;100169.88;5115850;28;8930;-62
2022/07/23 07:15:54;;;;;;;;;19.40;15.80;;;;;18.52;71.82;100164.13;5110045;28;8838;-62
2022/07/23 07:18:23;;;;;;;;;22.40;16.40;;;;;18.63;71.65;100166.53;5095066;28;9033;-61
2022/07/23 07:20:50;;;;;;;;;23.60;22.80;;;;;18.76;71.46;100168.72;5105093;28;8901;-61
2022/07/23 07:23:21;;;;;;;;;21.60;18.60;;;;;18.86;71.31;100164.84;5115544;28;8824;-61
2022/07/23 07:25:49;;;;;;;;;19.80;17.40;;;;;18.94;71.01;100166.69;5114923;28;8874;-62
2022/07/23 07:28:17;;;;;;;;;18.00;18.00;;;;;19.02;71.32;100170.22;5115036;28;8832;-62
2022/07/23 07:30:45;;;;;;;;;20.60;18.00;;;;;19.12;70.91;100176.28;5124377;27;8861;-62
2022/07/23 07:33:13;;;;;;;;;21.80;20.00;;;;;19.23;71.03;100167.88;5136017;27;8838;-63
2022/07/23 07:35:40;;;;;;;;;19.00;15.60;;;;;19.35;70.75;100171.88;5136305;27;8858;-61
2022/07/23 07:38:08;;;;;;;;;23.80;18.80;;;;;19.38;70.69;100173.41;5135918;27;8838;-63
2022/07/23 07:40:36;;;;;;;;;26.00;22.00;;;;;19.33;70.84;100173.94;5135898;27;8833;-62
2022/07/23 07:43:04;;;;;;;;;15.80;12.60;;;;;19.27;70.74;100177.31;5138001;27;8829;-62
2022/07/23 07:45:32;;;;;;;;;16.20;15.00;;;;;19.22;70.84;100187.81;5141133;27;8817;-67
2022/07/23 07:48:00;;;;;;;;;26.00;23.20;;;;;19.24;71.14;100195.72;5140701;27;8845;-62
2022/07/23 07:50:28;;;;;;;;;21.80;19.20;;;;;19.24;71.46;100193.00;5132960;27;9907;-62
2022/07/23 07:52:56;;;;;;;;;17.40;14.80;;;;;19.22;71.22;100203.16;5120053;28;8848;-61
2022/07/23 07:55:23;;;;;;;;;24.60;19.00;;;;;19.24;71.43;100201.97;5119949;28;8919;-62
2022/07/23 07:57:52;;;;;;;;;26.60;22.80;;;;;19.27;71.15;100204.31;5119599;28;8948;-62
2022/07/23 08:00:19;;;;;;;;;21.80;20.00;;;;;19.34;70.80;100201.78;5119927;28;8936;-65
2022/07/23 08:02:47;;;;;;;;;32.60;30.20;;;;;19.46;70.68;100197.69;5119710;28;8843;-62
2022/07/23 08:05:16;;;;;;;;;21.40;17.60;;;;;19.56;70.52;100201.91;5119664;28;8844;-62
2022/07/23 08:07:44;;;;;;;;;22.80;21.00;;;;;19.55;70.52;100204.75;5119519;28;8920;-63
2022/07/23 08:10:12;;;;;;;;;23.20;21.00;;;;;19.50;70.52;100205.28;5120702;27;8835;-63
2022/07/23 08:12:39;;;;;;;;;26.20;22.20;;;;;19.48;70.96;100199.22;5121503;27;8828;-61
2022/07/23 08:15:08;;;;;;;;;24.40;22.00;;;;;19.54;70.41;100203.09;5119303;28;9104;-62
2022/07/23 08:17:40;;;;;;;;;13.60;12.20;;;;;19.66;70.03;100205.25;5119092;28;8831;-61
2022/07/23 08:20:08;;;;;;;;;30.80;26.60;;;;;19.78;70.20;100209.28;5118975;28;8851;-62
2022/07/23 08:22:37;;;;;;;;;22.20;20.40;;;;;20.02;69.50;100203.75;5119346;28;8889;-61
2022/07/23 08:25:05;;;;;;;;;23.60;21.60;;;;;20.32;69.10;100204.84;5118967;28;8901;-63
2022/07/23 08:27:33;;;;;;;;;13.60;13.00;;;;;20.58;68.23;100199.94;5118820;27;8824;-62
2022/07/23 08:30:00;;;;;;;;;17.00;16.80;;;;;20.82;67.75;100204.16;5139526;27;8877;-62
2022/07/23 08:32:28;;;;;;;;;19.20;17.40;;;;;20.96;67.52;100210.69;5138867;27;8850;-62
2022/07/23 08:35:11;;;;;;;;;28.00;21.20;;;;;21.06;67.26;100217.56;5139410;27;8826;-61
2022/07/23 08:37:39;;;;;;;;;21.20;17.80;;;;;21.13;67.34;100218.50;5139591;27;8905;-63
2022/07/23 08:40:07;;;;;;;;;23.60;21.20;;;;;21.15;67.38;100219.16;5138790;27;8923;-62
2022/07/23 08:42:35;;;;;;;;;24.00;21.20;;;;;21.17;67.26;100224.38;5138254;27;8826;-62
2022/07/23 08:45:03;;;;;;;;;23.40;18.40;;;;;21.09;67.44;100221.75;5137547;27;8888;-62
2022/07/23 08:47:31;;;;;;;;;26.20;22.00;;;;;21.01;67.58;100219.97;5138105;27;8968;-62
2022/07/23 08:49:58;;;;;;;;;27.60;21.80;;;;;21.10;67.29;100218.03;5137833;27;8916;-62
2022/07/23 08:52:27;;;;;;;;;25.60;23.20;;;;;21.33;66.89;100219.66;5138284;27;8825;-63
2022/07/23 08:54:54;;;;;;;;;24.00;22.20;;;;;21.62;66.45;100213.44;5137372;27;8868;-62
2022/07/23 08:57:22;;;;;;;;;33.20;24.60;;;;;21.91;66.21;100216.19;5137340;27;8857;-62
2022/07/23 08:59:50;;;;;;;;;33.60;28.60;;;;;21.98;65.34;100215.28;5118612;27;8937;-62
2022/07/23 09:02:18;;;;;;;;;34.80;30.80;;;;;22.05;65.56;100216.22;5118821;28;8824;-61
2022/07/23 09:04:45;;;;;;;;;28.80;26.00;;;;;21.97;65.67;100223.59;5118330;28;8828;-62
2022/07/23 09:07:14;;;;;;;;;31.20;25.80;;;;;21.78;65.91;100222.28;5118155;28;8832;-62
2022/07/23 09:09:42;;;;;;;;;29.20;25.00;;;;;21.59;66.94;100222.81;5117645;28;9517;-62
2022/07/23 09:12:09;;;;;;;;;37.00;35.40;;;;;21.50;67.09;100220.38;5117622;28;8828;-62
2022/07/23 09:14:37;;;;;;;;;22.80;21.40;;;;;21.55;66.94;100217.94;5117248;28;8840;-63
2022/07/23 09:17:07;;;;;;;;;39.20;32.00;;;;;21.76;66.41;100221.63;5116858;28;8896;-63
2022/07/23 09:19:35;;;;;;;;;37.00;30.20;;;;;22.02;65.54;100216.56;5117089;28;8879;-62
2022/07/23 09:22:02;;;;;;;;;37.60;32.00;;;;;22.25;64.83;100221.88;5116722;28;8839;-62
2022/07/23 09:24:30;;;;;;;;;36.20;29.60;;;;;22.42;64.74;100213.38;5116600;28;8846;-62
2022/07/23 09:26:58;;;;;;;;;34.60;32.20;;;;;22.62;64.16;100216.31;5118255;28;9505;-62
2022/07/23 09:29:26;;;;;;;;;31.20;27.20;;;;;22.81;64.08;100212.94;5132191;27;8861;-63
2022/07/23 09:31:54;;;;;;;;;32.40;28.40;;;;;22.97;63.34;100215.41;5137808;27;8894;-62
2022/07/23 09:34:22;;;;;;;;;33.20;27.20;;;;;23.12;63.23;100211.59;5137627;27;8930;-62
2022/07/23 09:36:50;;;;;;;;;35.40;33.40;;;;;23.40;63.02;100219.81;5138417;27;8829;-62
2022/07/23 09:39:18;;;;;;;;;28.80;28.00;;;;;23.50;62.56;100220.28;5137881;27;8822;-62
2022/07/23 09:41:46;;;;;;;;;31.40;27.40;;;;;23.45;62.62;100226.31;5138409;27;8845;-62
2022/07/23 09:44:14;;;;;;;;;39.40;34.00;;;;;23.35;62.92;100216.81;5137151;27;8836;-62
2022/07/23 09:46:42;;;;;;;;;32.80;30.60;;;;;23.39;62.84;100218.13;5137289;27;9749;-62
2022/07/23 09:49:10;;;;;;;;;34.40;31.20;;;;;23.44;63.24;100229.25;5136753;27;8826;-63
2022/07/23 09:51:38;;;;;;;;;43.20;34.60;;;;;23.56;62.31;100233.94;5137981;27;8833;-62
2022/07/23 09:54:06;;;;;;;;;23.20;21.40;;;;;23.78;62.34;100224.69;5137377;27;8829;-62
2022/07/23 09:56:34;;;;;;;;;32.00;29.20;;;;;24.11;61.29;100219.47;5136124;27;8848;-62
2022/07/23 09:59:06;;;;;;;;;32.00;29.20;;;;;24.35;61.09;100222.50;5134655;27;8842;-65
2022/07/23 10:01:33;;;;;;;;;33.80;30.80;;;;;24.75;59.46;100224.38;5136438;27;8968;-62
2022/07/23 10:04:01;;;;;;;;;30.20;28.60;;;;;25.20;58.89;100211.84;5136631;27;8865;-62
2022/07/23 10:06:30;;;;;;;;;28.60;26.00;;;;;25.60;58.04;100212.47;5135433;27;8813;-63
2022/07/23 10:08:57;;;;;;;;;32.20;27.80;;;;;25.74;57.68;100213.31;5136569;27;8817;-63
2022/07/23 10:11:25;;;;;;;;;31.60;29.00;;;;;26.03;57.37;100219.16;5136646;27;10279;-63
2022/07/23 10:13:54;;;;;;;;;29.80;26.80;;;;;26.12;57.43;100217.03;5136646;27;8830;-63
2022/07/23 10:16:22;;;;;;;;;30.40;28.00;;;;;25.72;58.13;100215.41;5136478;27;9575;-64
2022/07/23 10:18:54;;;;;;;;;30.00;26.40;;;;;25.18;59.38;100219.41;5136738;27;8845;-62
2022/07/23 10:21:22;;;;;;;;;32.80;27.40;;;;;24.85;60.63;100215.78;5137283;27;8854;-62
2022/07/23 10:23:49;;;;;;;;;31.00;27.20;;;;;25.30;59.61;100212.28;5125432;27;8827;-63
2022/07/23 10:26:18;;;;;;;;;24.20;22.00;;;;;26.07;57.45;100206.75;5115772;28;9491;-62
2022/07/23 10:28:45;;;;;;;;;30.60;25.60;;;;;26.90;55.71;100209.31;5116030;28;8908;-62
2022/07/23 10:31:13;;;;;;;;;25.40;20.80;;;;;27.60;55.30;100211.72;5101778;28;8878;-67
2022/07/23 10:34:01;;;;;;;;;25.40;23.80;;;;;28.05;54.23;100199.50;5079007;28;8980;-64
2022/07/23 10:36:29;;;;;;;;;25.60;23.00;;;;;28.04;54.12;100202.44;5094419;28;8837;-64
2022/07/23 10:38:58;;;;;;;;;29.00;26.60;;;;;27.93;54.53;100209.50;5093309;28;8842;-63
2022/07/23 10:41:25;;;;;;;;;31.00;27.40;;;;;27.99;54.19;100205.06;5093675;28;8857;-63
2022/07/23 10:43:53;;;;;;;;;30.00;27.60;;;;;28.26;53.66;100207.25;5093277;28;8938;-63
2022/07/23 10:46:22;;;;;;;;;27.00;25.60;;;;;28.70;52.86;100215.16;5093033;28;9491;-63
2022/07/23 10:48:50;;;;;;;;;26.80;24.20;;;;;29.12;52.32;100205.88;5094407;28;8845;-65
2022/07/23 10:51:18;;;;;;;;;26.20;24.20;;;;;29.47;52.10;100200.44;5094265;28;8830;-64
2022/07/23 10:53:46;;;;;;;;;26.20;22.60;;;;;29.83;51.30;100198.34;5105173;28;8828;-62
2022/07/23 10:56:14;;;;;;;;;24.00;22.00;;;;;29.84;51.27;100199.16;5115655;28;8827;-63
2022/07/23 10:58:42;;;;;;;;;19.80;17.40;;;;;29.60;51.98;100201.09;5114395;28;8823;-70
2022/07/23 11:01:10;;;;;;;;;21.00;18.80;;;;;29.82;51.11;100195.84;5113974;28;8862;-64
2022/07/23 11:03:38;;;;;;;;;23.60;22.20;;;;;30.15;50.87;100201.53;5115635;28;8839;-63
2022/07/23 11:06:06;;;;;;;;;22.00;19.80;;;;;30.53;49.51;100202.66;5115252;28;8915;-62
2022/07/23 11:08:35;;;;;;;;;20.20;17.60;;;;;30.70;49.62;100198.06;5115568;28;8839;-63
2022/07/23 11:11:02;;;;;;;;;19.40;17.20;;;;;30.33;50.19;100199.47;5115451;28;8848;-62
2022/07/23 11:13:30;;;;;;;;;16.80;16.20;;;;;30.22;50.74;100194.84;5115260;28;8843;-62
2022/07/23 11:15:58;;;;;;;;;20.40;19.00;;;;;30.43;50.27;100190.59;5115670;28;8965;-62
2022/07/23 11:18:27;;;;;;;;;17.20;16.00;;;;;30.69;49.73;100196.38;5115354;28;8889;-62
2022/07/23 11:21:02;;;;;;;;;15.80;15.20;;;;;31.03;48.96;100195.41;5115373;28;8824;-64